sensor_id;sensor_type;location;lat;lon;timestamp;temperature;humidity
19359;DHT22;9815;52.334;20.890;2023-11-21T00:00:51;0.30;99.90
19359;DHT22;9815;52.334;20.890;2023-11-21T00:03:20;0.30;99.90
19359;DHT22;9815;52.334;20.890;2023-11-21T00:05:50;0.40;99.90
19359;DHT22;9815;52.334;20.890;2023-11-21T00:08:19;0.30;99.90
19359;DHT22;9815;52.334;20.890;2023-11-21T00:10:49;0.20;99.90
19359;DHT22;9815;52.334;20.890;2023-11-21T00:13:21;0.30;99.90
19359;DHT22;9815;52.334;20.890;2023-11-21T00:15:50;0.30;99.90
19359;DHT22;9815;52.334;20.890;2023-11-21T00:18:18;0.30;99.90
19359;DHT22;9815;52.334;20.890;2023-11-21T00:20:46;0.30;99.90
19359;DHT22;9815;52.334;20.890;2023-11-21T00:23:15;0.20;99.90
19359;DHT22;9815;52.334;20.890;2023-11-21T00:25:43;0.20;99.90
19359;DHT22;9815;52.334;20.890;2023-11-21T00:28:13;0.20;99.90
19359;DHT22;9815;52.334;20.890;2023-11-21T00:30:42;0.20;99.90
19359;DHT22;9815;52.334;20.890;2023-11-21T00:33:10;0.20;99.90
19359;DHT22;9815;52.334;20.890;2023-11-21T00:35:39;0.20;99.90
19359;DHT22;9815;52.334;20.890;2023-11-21T00:38:07;0.20;99.90
19359;DHT22;9815;52.334;20.890;2023-11-21T00:40:36;0.30;99.90
19359;DHT22;9815;52.334;20.890;2023-11-21T00:43:05;0.30;99.90
19359;DHT22;9815;52.334;20.890;2023-11-21T00:45:35;0.30;99.90
19359;DHT22;9815;52.334;20.890;2023-11-21T00:48:03;0.30;99.90
19359;DHT22;9815;52.334;20.890;2023-11-21T00:50:32;0.30;99.90
19359;DHT22;9815;52.334;20.890;2023-11-21T00:53:00;0.20;99.90
19359;DHT22;9815;52.334;20.890;2023-11-21T00:55:29;0.20;99.90
19359;DHT22;9815;52.334;20.890;2023-11-21T00:57:58;0.20;99.90
19359;DHT22;9815;52.334;20.890;2023-11-21T01:00:26;0.20;99.90
19359;DHT22;9815;52.334;20.890;2023-11-21T01:02:57;0.20;99.90
19359;DHT22;9815;52.334;20.890;2023-11-21T01:05:25;0.10;99.90
19359;DHT22;9815;52.334;20.890;2023-11-21T01:07:53;0.20;99.90
19359;DHT22;9815;52.334;20.890;2023-11-21T01:10:22;0.10;99.90
19359;DHT22;9815;52.334;20.890;2023-11-21T01:12:50;0.10;99.90
19359;DHT22;9815;52.334;20.890;2023-11-21T01:15:18;0.10;99.90
19359;DHT22;9815;52.334;20.890;2023-11-21T01:17:47;0.10;99.90
19359;DHT22;9815;52.334;20.890;2023-11-21T01:20:17;0.10;99.90
19359;DHT22;9815;52.334;20.890;2023-11-21T01:22:46;0.10;99.90
19359;DHT22;9815;52.334;20.890;2023-11-21T01:25:16;0.10;99.90
19359;DHT22;9815;52.334;20.890;2023-11-21T01:27:44;0.10;99.90
19359;DHT22;9815;52.334;20.890;2023-11-21T01:30:13;0.10;99.90
19359;DHT22;9815;52.334;20.890;2023-11-21T01:32:41;0.10;99.90
19359;DHT22;9815;52.334;20.890;2023-11-21T01:35:11;0.10;99.90
19359;DHT22;9815;52.334;20.890;2023-11-21T01:37:41;0.00;99.90
19359;DHT22;9815;52.334;20.890;2023-11-21T01:40:10;0.00;99.90
19359;DHT22;9815;52.334;20.890;2023-11-21T01:42:42;0.00;99.90
19359;DHT22;9815;52.334;20.890;2023-11-21T01:45:12;0.00;99.90
19359;DHT22;9815;52.334;20.890;2023-11-21T01:47:41;0.00;99.90
19359;DHT22;9815;52.334;20.890;2023-11-21T01:50:14;0.00;99.90
19359;DHT22;9815;52.334;20.890;2023-11-21T01:52:46;0.00;99.90
19359;DHT22;9815;52.334;20.890;2023-11-21T01:55:17;0.10;99.90
19359;DHT22;9815;52.334;20.890;2023-11-21T01:57:55;0.00;99.90
19359;DHT22;9815;52.334;20.890;2023-11-21T02:00:24;0.00;99.90
19359;DHT22;9815;52.334;20.890;2023-11-21T02:02:52;0.00;99.90
19359;DHT22;9815;52.334;20.890;2023-11-21T02:05:21;0.00;99.90
19359;DHT22;9815;52.334;20.890;2023-11-21T02:07:50;-0.10;99.90
19359;DHT22;9815;52.334;20.890;2023-11-21T02:10:19;-0.10;99.90
19359;DHT22;9815;52.334;20.890;2023-11-21T02:12:52;-0.10;99.90
19359;DHT22;9815;52.334;20.890;2023-11-21T02:15:20;-0.10;99.90
19359;DHT22;9815;52.334;20.890;2023-11-21T02:17:50;-0.10;99.90
19359;DHT22;9815;52.334;20.890;2023-11-21T02:20:21;-0.10;99.90
19359;DHT22;9815;52.334;20.890;2023-11-21T02:22:55;-0.10;99.90
19359;DHT22;9815;52.334;20.890;2023-11-21T02:25:27;-0.10;99.90
19359;DHT22;9815;52.334;20.890;2023-11-21T02:27:56;-0.10;99.90
19359;DHT22;9815;52.334;20.890;2023-11-21T02:30:25;0.00;99.90
19359;DHT22;9815;52.334;20.890;2023-11-21T02:32:55;0.00;99.90
19359;DHT22;9815;52.334;20.890;2023-11-21T02:35:25;0.00;99.90
19359;DHT22;9815;52.334;20.890;2023-11-21T02:37:55;-0.10;99.90
19359;DHT22;9815;52.334;20.890;2023-11-21T02:40:24;0.00;99.90
19359;DHT22;9815;52.334;20.890;2023-11-21T02:42:54;0.00;99.90
19359;DHT22;9815;52.334;20.890;2023-11-21T02:45:26;0.00;99.90
19359;DHT22;9815;52.334;20.890;2023-11-21T02:47:54;-0.10;99.90
19359;DHT22;9815;52.334;20.890;2023-11-21T02:50:25;-0.10;99.90
19359;DHT22;9815;52.334;20.890;2023-11-21T02:52:55;-0.10;99.90
19359;DHT22;9815;52.334;20.890;2023-11-21T02:55:27;-0.10;99.90
19359;DHT22;9815;52.334;20.890;2023-11-21T02:57:56;0.00;99.90
19359;DHT22;9815;52.334;20.890;2023-11-21T03:00:24;-0.10;99.90
19359;DHT22;9815;52.334;20.890;2023-11-21T03:02:55;-0.10;99.90
19359;DHT22;9815;52.334;20.890;2023-11-21T03:05:25;-0.10;99.90
19359;DHT22;9815;52.334;20.890;2023-11-21T03:07:55;-0.20;99.90
19359;DHT22;9815;52.334;20.890;2023-11-21T03:10:25;-0.20;99.90
19359;DHT22;9815;52.334;20.890;2023-11-21T03:12:55;-0.20;99.90
19359;DHT22;9815;52.334;20.890;2023-11-21T03:15:24;-0.10;99.90
19359;DHT22;9815;52.334;20.890;2023-11-21T03:17:53;-0.20;99.90
19359;DHT22;9815;52.334;20.890;2023-11-21T03:20:21;-0.20;99.90
19359;DHT22;9815;52.334;20.890;2023-11-21T03:22:49;-0.20;99.90
19359;DHT22;9815;52.334;20.890;2023-11-21T03:25:19;-0.30;99.90
19359;DHT22;9815;52.334;20.890;2023-11-21T03:27:51;-0.30;99.90
19359;DHT22;9815;52.334;20.890;2023-11-21T03:30:20;-0.30;99.90
19359;DHT22;9815;52.334;20.890;2023-11-21T03:32:48;-0.30;99.90
19359;DHT22;9815;52.334;20.890;2023-11-21T03:35:17;-0.30;99.90
19359;DHT22;9815;52.334;20.890;2023-11-21T03:37:48;-0.20;99.90
19359;DHT22;9815;52.334;20.890;2023-11-21T03:40:16;-0.20;99.90
19359;DHT22;9815;52.334;20.890;2023-11-21T03:42:46;-0.30;99.90
19359;DHT22;9815;52.334;20.890;2023-11-21T03:45:14;-0.20;99.90
19359;DHT22;9815;52.334;20.890;2023-11-21T03:47:42;-0.20;99.90
19359;DHT22;9815;52.334;20.890;2023-11-21T03:50:11;-0.20;99.90
19359;DHT22;9815;52.334;20.890;2023-11-21T03:52:39;-0.30;99.90
19359;DHT22;9815;52.334;20.890;2023-11-21T03:55:08;-0.30;99.90
19359;DHT22;9815;52.334;20.890;2023-11-21T03:57:42;-0.30;99.90
19359;DHT22;9815;52.334;20.890;2023-11-21T04:00:13;-0.40;99.90
19359;DHT22;9815;52.334;20.890;2023-11-21T04:02:41;-0.30;99.90
19359;DHT22;9815;52.334;20.890;2023-11-21T04:05:10;-0.30;99.90
19359;DHT22;9815;52.334;20.890;2023-11-21T04:07:39;-0.30;99.90
19359;DHT22;9815;52.334;20.890;2023-11-21T04:10:08;-0.30;99.90
19359;DHT22;9815;52.334;20.890;2023-11-21T04:12:39;-0.30;99.90
19359;DHT22;9815;52.334;20.890;2023-11-21T04:15:08;-0.20;99.90
19359;DHT22;9815;52.334;20.890;2023-11-21T04:17:38;-0.30;99.90
19359;DHT22;9815;52.334;20.890;2023-11-21T04:20:08;-0.30;99.90
19359;DHT22;9815;52.334;20.890;2023-11-21T04:22:38;-0.30;99.90
19359;DHT22;9815;52.334;20.890;2023-11-21T04:25:12;-0.30;99.90
19359;DHT22;9815;52.334;20.890;2023-11-21T04:27:41;-0.30;99.90
19359;DHT22;9815;52.334;20.890;2023-11-21T04:30:11;-0.30;99.90
19359;DHT22;9815;52.334;20.890;2023-11-21T04:32:42;-0.30;99.90
19359;DHT22;9815;52.334;20.890;2023-11-21T04:35:10;-0.30;99.90
19359;DHT22;9815;52.334;20.890;2023-11-21T04:37:39;-0.30;99.90
19359;DHT22;9815;52.334;20.890;2023-11-21T04:40:08;-0.40;99.90
19359;DHT22;9815;52.334;20.890;2023-11-21T04:42:36;-0.30;99.90
19359;DHT22;9815;52.334;20.890;2023-11-21T04:45:06;-0.40;99.90
19359;DHT22;9815;52.334;20.890;2023-11-21T04:47:36;-0.40;99.90
19359;DHT22;9815;52.334;20.890;2023-11-21T04:50:07;-0.40;99.90
19359;DHT22;9815;52.334;20.890;2023-11-21T04:52:36;-0.40;99.90
19359;DHT22;9815;52.334;20.890;2023-11-21T04:55:05;-0.40;99.90
19359;DHT22;9815;52.334;20.890;2023-11-21T04:57:33;-0.40;99.90
19359;DHT22;9815;52.334;20.890;2023-11-21T05:00:02;-0.30;99.90
19359;DHT22;9815;52.334;20.890;2023-11-21T05:02:33;-0.50;99.90
19359;DHT22;9815;52.334;20.890;2023-11-21T05:05:02;-0.50;99.90
19359;DHT22;9815;52.334;20.890;2023-11-21T05:07:34;-0.40;99.90
19359;DHT22;9815;52.334;20.890;2023-11-21T05:10:04;-0.40;99.90
19359;DHT22;9815;52.334;20.890;2023-11-21T05:12:35;-0.40;99.90
19359;DHT22;9815;52.334;20.890;2023-11-21T05:15:05;-0.40;99.90
19359;DHT22;9815;52.334;20.890;2023-11-21T05:17:37;-0.40;99.90
19359;DHT22;9815;52.334;20.890;2023-11-21T05:20:07;-0.40;99.90
19359;DHT22;9815;52.334;20.890;2023-11-21T05:22:38;-0.50;99.90
19359;DHT22;9815;52.334;20.890;2023-11-21T05:25:07;-0.40;99.90
19359;DHT22;9815;52.334;20.890;2023-11-21T05:27:36;-0.50;99.90
19359;DHT22;9815;52.334;20.890;2023-11-21T05:30:05;-0.50;99.90
19359;DHT22;9815;52.334;20.890;2023-11-21T05:32:36;-0.60;99.90
19359;DHT22;9815;52.334;20.890;2023-11-21T05:35:05;-0.50;99.90
19359;DHT22;9815;52.334;20.890;2023-11-21T05:37:38;-0.50;99.90
19359;DHT22;9815;52.334;20.890;2023-11-21T05:40:07;-0.50;99.90
19359;DHT22;9815;52.334;20.890;2023-11-21T05:42:36;-0.50;99.90
19359;DHT22;9815;52.334;20.890;2023-11-21T05:45:06;-0.50;99.90
19359;DHT22;9815;52.334;20.890;2023-11-21T05:47:39;-0.50;99.90
19359;DHT22;9815;52.334;20.890;2023-11-21T05:50:08;-0.50;99.90
19359;DHT22;9815;52.334;20.890;2023-11-21T05:52:44;-0.50;99.90
19359;DHT22;9815;52.334;20.890;2023-11-21T05:55:13;-0.50;99.90
19359;DHT22;9815;52.334;20.890;2023-11-21T05:57:43;-0.50;99.90
19359;DHT22;9815;52.334;20.890;2023-11-21T06:00:13;-0.50;99.90
19359;DHT22;9815;52.334;20.890;2023-11-21T06:02:47;-0.50;99.90
19359;DHT22;9815;52.334;20.890;2023-11-21T06:05:18;-0.50;99.90
19359;DHT22;9815;52.334;20.890;2023-11-21T06:07:48;-0.50;99.90
19359;DHT22;9815;52.334;20.890;2023-11-21T06:10:22;-0.50;99.90
19359;DHT22;9815;52.334;20.890;2023-11-21T06:12:53;-0.50;99.90
19359;DHT22;9815;52.334;20.890;2023-11-21T06:15:22;-0.60;99.90
19359;DHT22;9815;52.334;20.890;2023-11-21T06:17:51;-0.40;99.90
19359;DHT22;9815;52.334;20.890;2023-11-21T06:20:21;-0.50;99.90
19359;DHT22;9815;52.334;20.890;2023-11-21T06:22:51;-0.50;99.90
19359;DHT22;9815;52.334;20.890;2023-11-21T06:25:20;-0.50;99.90
19359;DHT22;9815;52.334;20.890;2023-11-21T06:27:50;-0.50;99.90
19359;DHT22;9815;52.334;20.890;2023-11-21T06:30:21;-0.50;99.90
19359;DHT22;9815;52.334;20.890;2023-11-21T06:32:50;-0.50;99.90
19359;DHT22;9815;52.334;20.890;2023-11-21T06:35:20;-0.50;99.90
19359;DHT22;9815;52.334;20.890;2023-11-21T06:37:49;-0.50;99.90
19359;DHT22;9815;52.334;20.890;2023-11-21T06:40:20;-0.50;99.90
19359;DHT22;9815;52.334;20.890;2023-11-21T06:42:49;-0.50;99.90
19359;DHT22;9815;52.334;20.890;2023-11-21T06:45:18;-0.50;99.90
19359;DHT22;9815;52.334;20.890;2023-11-21T06:47:47;-0.50;99.90
19359;DHT22;9815;52.334;20.890;2023-11-21T06:50:16;-0.50;99.90
19359;DHT22;9815;52.334;20.890;2023-11-21T06:52:45;-0.50;99.90
19359;DHT22;9815;52.334;20.890;2023-11-21T06:55:13;-0.50;99.90
19359;DHT22;9815;52.334;20.890;2023-11-21T06:57:45;-0.50;99.90
19359;DHT22;9815;52.334;20.890;2023-11-21T07:00:15;-0.60;99.90
19359;DHT22;9815;52.334;20.890;2023-11-21T07:02:45;-0.60;99.90
19359;DHT22;9815;52.334;20.890;2023-11-21T07:05:14;-0.50;99.90
19359;DHT22;9815;52.334;20.890;2023-11-21T07:07:47;-0.50;99.90
19359;DHT22;9815;52.334;20.890;2023-11-21T07:10:16;-0.50;99.90
19359;DHT22;9815;52.334;20.890;2023-11-21T07:12:46;-0.50;99.90
19359;DHT22;9815;52.334;20.890;2023-11-21T07:15:15;-0.40;99.90
19359;DHT22;9815;52.334;20.890;2023-11-21T07:17:43;-0.40;99.90
19359;DHT22;9815;52.334;20.890;2023-11-21T07:20:12;-0.50;99.90
19359;DHT22;9815;52.334;20.890;2023-11-21T07:22:41;-0.40;99.90
19359;DHT22;9815;52.334;20.890;2023-11-21T07:25:09;-0.40;99.90
19359;DHT22;9815;52.334;20.890;2023-11-21T07:27:38;-0.40;99.90
19359;DHT22;9815;52.334;20.890;2023-11-21T07:30:09;-0.40;99.90
19359;DHT22;9815;52.334;20.890;2023-11-21T07:32:38;-0.40;99.90
19359;DHT22;9815;52.334;20.890;2023-11-21T07:35:08;-0.40;99.90
19359;DHT22;9815;52.334;20.890;2023-11-21T07:37:37;-0.30;99.90
19359;DHT22;9815;52.334;20.890;2023-11-21T07:40:06;-0.30;99.90
19359;DHT22;9815;52.334;20.890;2023-11-21T07:42:36;-0.40;99.90
19359;DHT22;9815;52.334;20.890;2023-11-21T07:45:06;-0.40;99.90
19359;DHT22;9815;52.334;20.890;2023-11-21T07:47:37;-0.40;99.90
19359;DHT22;9815;52.334;20.890;2023-11-21T07:50:10;-0.30;99.90
19359;DHT22;9815;52.334;20.890;2023-11-21T07:52:38;-0.30;99.90
19359;DHT22;9815;52.334;20.890;2023-11-21T07:55:07;-0.30;99.90
19359;DHT22;9815;52.334;20.890;2023-11-21T07:57:36;-0.30;99.90
19359;DHT22;9815;52.334;20.890;2023-11-21T08:00:05;-0.30;99.90
19359;DHT22;9815;52.334;20.890;2023-11-21T08:02:41;-0.20;99.90
19359;DHT22;9815;52.334;20.890;2023-11-21T08:05:13;-0.20;99.90
19359;DHT22;9815;52.334;20.890;2023-11-21T08:07:54;-0.20;99.90
19359;DHT22;9815;52.334;20.890;2023-11-21T08:10:23;-0.30;99.90
19359;DHT22;9815;52.334;20.890;2023-11-21T08:12:52;-0.30;99.90
19359;DHT22;9815;52.334;20.890;2023-11-21T08:15:20;-0.20;99.90
19359;DHT22;9815;52.334;20.890;2023-11-21T08:17:50;-0.20;99.90
19359;DHT22;9815;52.334;20.890;2023-11-21T08:20:19;-0.20;99.90
19359;DHT22;9815;52.334;20.890;2023-11-21T08:22:50;-0.30;99.90
19359;DHT22;9815;52.334;20.890;2023-11-21T08:25:19;-0.30;99.90
19359;DHT22;9815;52.334;20.890;2023-11-21T08:27:47;-0.20;99.90
19359;DHT22;9815;52.334;20.890;2023-11-21T08:30:16;-0.30;99.90
19359;DHT22;9815;52.334;20.890;2023-11-21T08:32:46;-0.30;99.90
19359;DHT22;9815;52.334;20.890;2023-11-21T08:35:16;-0.30;99.90
19359;DHT22;9815;52.334;20.890;2023-11-21T08:37:45;-0.30;99.90
19359;DHT22;9815;52.334;20.890;2023-11-21T08:40:13;-0.10;99.90
19359;DHT22;9815;52.334;20.890;2023-11-21T08:42:44;-0.20;99.90
19359;DHT22;9815;52.334;20.890;2023-11-21T08:45:13;-0.20;99.90
19359;DHT22;9815;52.334;20.890;2023-11-21T08:47:42;-0.20;99.90
19359;DHT22;9815;52.334;20.890;2023-11-21T08:50:11;-0.20;99.90
19359;DHT22;9815;52.334;20.890;2023-11-21T08:52:42;-0.20;99.90
19359;DHT22;9815;52.334;20.890;2023-11-21T08:55:10;-0.20;99.90
19359;DHT22;9815;52.334;20.890;2023-11-21T08:57:41;-0.10;99.90
19359;DHT22;9815;52.334;20.890;2023-11-21T09:00:12;-0.10;99.90
19359;DHT22;9815;52.334;20.890;2023-11-21T09:02:43;0.00;99.90
19359;DHT22;9815;52.334;20.890;2023-11-21T09:05:12;0.10;99.90
19359;DHT22;9815;52.334;20.890;2023-11-21T09:07:43;0.00;99.90
19359;DHT22;9815;52.334;20.890;2023-11-21T09:10:13;0.00;99.90
19359;DHT22;9815;52.334;20.890;2023-11-21T09:12:41;0.00;99.90
19359;DHT22;9815;52.334;20.890;2023-11-21T09:15:11;0.00;99.90
19359;DHT22;9815;52.334;20.890;2023-11-21T09:17:39;0.00;99.90
19359;DHT22;9815;52.334;20.890;2023-11-21T09:20:10;0.10;99.90
19359;DHT22;9815;52.334;20.890;2023-11-21T09:22:39;0.00;99.90
19359;DHT22;9815;52.334;20.890;2023-11-21T09:25:09;0.10;99.90
19359;DHT22;9815;52.334;20.890;2023-11-21T09:27:37;0.00;99.90
19359;DHT22;9815;52.334;20.890;2023-11-21T09:30:07;0.00;99.90
19359;DHT22;9815;52.334;20.890;2023-11-21T09:32:38;0.00;99.90
19359;DHT22;9815;52.334;20.890;2023-11-21T09:35:08;0.00;99.90
19359;DHT22;9815;52.334;20.890;2023-11-21T09:37:37;0.00;99.90
19359;DHT22;9815;52.334;20.890;2023-11-21T09:40:10;0.00;99.90
19359;DHT22;9815;52.334;20.890;2023-11-21T09:42:45;0.10;99.90
19359;DHT22;9815;52.334;20.890;2023-11-21T09:45:24;0.00;99.90
19359;DHT22;9815;52.334;20.890;2023-11-21T09:47:54;0.20;99.90
19359;DHT22;9815;52.334;20.890;2023-11-21T09:50:24;0.20;99.90
19359;DHT22;9815;52.334;20.890;2023-11-21T09:53:08;0.10;99.90
19359;DHT22;9815;52.334;20.890;2023-11-21T09:55:43;0.10;99.90
19359;DHT22;9815;52.334;20.890;2023-11-21T09:58:12;0.10;99.90
19359;DHT22;9815;52.334;20.890;2023-11-21T10:00:42;0.10;99.90
19359;DHT22;9815;52.334;20.890;2023-11-21T10:03:11;0.20;99.90
19359;DHT22;9815;52.334;20.890;2023-11-21T10:05:41;0.10;99.90
19359;DHT22;9815;52.334;20.890;2023-11-21T10:08:11;0.10;99.90
19359;DHT22;9815;52.334;20.890;2023-11-21T10:10:43;0.10;99.90
19359;DHT22;9815;52.334;20.890;2023-11-21T10:13:14;0.20;99.90
19359;DHT22;9815;52.334;20.890;2023-11-21T10:15:49;0.20;99.90
19359;DHT22;9815;52.334;20.890;2023-11-21T10:18:19;0.10;99.90
19359;DHT22;9815;52.334;20.890;2023-11-21T10:20:49;0.10;99.90
19359;DHT22;9815;52.334;20.890;2023-11-21T10:23:21;0.00;99.90
19359;DHT22;9815;52.334;20.890;2023-11-21T10:25:52;0.00;99.90
19359;DHT22;9815;52.334;20.890;2023-11-21T10:28:24;0.00;99.90
19359;DHT22;9815;52.334;20.890;2023-11-21T10:30:53;0.10;99.90
19359;DHT22;9815;52.334;20.890;2023-11-21T10:33:27;0.10;99.90
19359;DHT22;9815;52.334;20.890;2023-11-21T10:35:57;0.20;99.90
19359;DHT22;9815;52.334;20.890;2023-11-21T10:38:26;0.20;99.90
19359;DHT22;9815;52.334;20.890;2023-11-21T10:40:59;0.10;99.90
19359;DHT22;9815;52.334;20.890;2023-11-21T10:43:31;0.00;99.90
19359;DHT22;9815;52.334;20.890;2023-11-21T10:46:02;0.00;99.90
19359;DHT22;9815;52.334;20.890;2023-11-21T10:48:32;0.00;99.90
19359;DHT22;9815;52.334;20.890;2023-11-21T10:51:06;0.00;99.90
19359;DHT22;9815;52.334;20.890;2023-11-21T10:53:39;0.00;99.90
19359;DHT22;9815;52.334;20.890;2023-11-21T10:56:14;0.10;99.90
19359;DHT22;9815;52.334;20.890;2023-11-21T10:58:52;0.10;99.90
19359;DHT22;9815;52.334;20.890;2023-11-21T11:01:23;0.10;99.90
19359;DHT22;9815;52.334;20.890;2023-11-21T11:03:56;0.10;99.90
19359;DHT22;9815;52.334;20.890;2023-11-21T11:06:26;0.10;99.90
19359;DHT22;9815;52.334;20.890;2023-11-21T11:09:04;0.00;99.90
19359;DHT22;9815;52.334;20.890;2023-11-21T11:11:37;0.10;99.90
19359;DHT22;9815;52.334;20.890;2023-11-21T11:14:10;0.00;99.90
19359;DHT22;9815;52.334;20.890;2023-11-21T11:16:39;0.10;99.90
19359;DHT22;9815;52.334;20.890;2023-11-21T11:19:10;0.10;99.90
19359;DHT22;9815;52.334;20.890;2023-11-21T11:21:49;0.10;99.90
19359;DHT22;9815;52.334;20.890;2023-11-21T11:24:47;0.10;99.90
19359;DHT22;9815;52.334;20.890;2023-11-21T11:27:28;0.10;99.90
19359;DHT22;9815;52.334;20.890;2023-11-21T11:30:08;0.20;99.90
19359;DHT22;9815;52.334;20.890;2023-11-21T11:32:50;0.10;99.90
19359;DHT22;9815;52.334;20.890;2023-11-21T11:35:29;0.10;99.90
19359;DHT22;9815;52.334;20.890;2023-11-21T11:38:01;0.10;99.90
19359;DHT22;9815;52.334;20.890;2023-11-21T11:40:39;0.00;99.90
19359;DHT22;9815;52.334;20.890;2023-11-21T11:43:10;0.10;99.90
19359;DHT22;9815;52.334;20.890;2023-11-21T11:45:39;0.00;99.90
19359;DHT22;9815;52.334;20.890;2023-11-21T11:48:11;0.00;99.90
19359;DHT22;9815;52.334;20.890;2023-11-21T11:53:26;0.10;99.90
19359;DHT22;9815;52.334;20.890;2023-11-21T11:56:07;0.10;99.90
19359;DHT22;9815;52.334;20.890;2023-11-21T11:58:49;0.10;99.90
19359;DHT22;9815;52.334;20.890;2023-11-21T12:01:19;0.10;99.90
19359;DHT22;9815;52.334;20.890;2023-11-21T12:04:25;0.10;99.90
19359;DHT22;9815;52.334;20.890;2023-11-21T12:07:04;0.20;99.90
19359;DHT22;9815;52.334;20.890;2023-11-21T12:09:34;0.20;99.90
19359;DHT22;9815;52.334;20.890;2023-11-21T12:12:05;0.30;99.90
19359;DHT22;9815;52.334;20.890;2023-11-21T12:14:36;0.20;99.90
19359;DHT22;9815;52.334;20.890;2023-11-21T12:17:05;0.20;99.90
19359;DHT22;9815;52.334;20.890;2023-11-21T12:19:38;0.20;99.90
19359;DHT22;9815;52.334;20.890;2023-11-21T12:22:07;0.20;99.90
19359;DHT22;9815;52.334;20.890;2023-11-21T12:24:35;0.30;99.90
19359;DHT22;9815;52.334;20.890;2023-11-21T12:27:04;0.30;99.90
19359;DHT22;9815;52.334;20.890;2023-11-21T12:29:34;0.20;99.90
19359;DHT22;9815;52.334;20.890;2023-11-21T12:32:05;0.20;99.90
19359;DHT22;9815;52.334;20.890;2023-11-21T12:34:34;0.20;99.90
19359;DHT22;9815;52.334;20.890;2023-11-21T12:37:02;0.30;99.90
19359;DHT22;9815;52.334;20.890;2023-11-21T12:39:31;0.20;99.90
19359;DHT22;9815;52.334;20.890;2023-11-21T12:41:59;0.30;99.90
19359;DHT22;9815;52.334;20.890;2023-11-21T12:44:31;0.30;99.90
19359;DHT22;9815;52.334;20.890;2023-11-21T12:47:29;0.30;99.90
19359;DHT22;9815;52.334;20.890;2023-11-21T12:49:58;0.20;99.90
19359;DHT22;9815;52.334;20.890;2023-11-21T12:52:28;0.10;99.90
19359;DHT22;9815;52.334;20.890;2023-11-21T12:54:57;0.10;99.90
19359;DHT22;9815;52.334;20.890;2023-11-21T12:57:25;0.10;99.90
19359;DHT22;9815;52.334;20.890;2023-11-21T12:59:57;0.10;99.90
19359;DHT22;9815;52.334;20.890;2023-11-21T13:02:26;0.10;99.90
19359;DHT22;9815;52.334;20.890;2023-11-21T13:04:57;0.20;99.90
19359;DHT22;9815;52.334;20.890;2023-11-21T13:07:26;0.30;99.90
19359;DHT22;9815;52.334;20.890;2023-11-21T13:09:54;0.30;99.90
19359;DHT22;9815;52.334;20.890;2023-11-21T13:12:24;0.20;99.90
19359;DHT22;9815;52.334;20.890;2023-11-21T13:14:52;0.20;99.90
19359;DHT22;9815;52.334;20.890;2023-11-21T13:17:21;0.30;99.90
19359;DHT22;9815;52.334;20.890;2023-11-21T13:19:52;0.10;99.90
19359;DHT22;9815;52.334;20.890;2023-11-21T13:22:22;0.10;99.90
19359;DHT22;9815;52.334;20.890;2023-11-21T13:24:52;0.00;99.90
19359;DHT22;9815;52.334;20.890;2023-11-21T13:27:20;-0.10;99.90
19359;DHT22;9815;52.334;20.890;2023-11-21T13:29:48;-0.10;99.90
19359;DHT22;9815;52.334;20.890;2023-11-21T13:32:17;0.00;99.90
19359;DHT22;9815;52.334;20.890;2023-11-21T13:34:47;-0.10;99.90
19359;DHT22;9815;52.334;20.890;2023-11-21T13:37:21;0.00;99.90
19359;DHT22;9815;52.334;20.890;2023-11-21T13:39:52;0.00;99.90
19359;DHT22;9815;52.334;20.890;2023-11-21T13:42:21;0.00;99.90
19359;DHT22;9815;52.334;20.890;2023-11-21T13:44:56;-0.10;99.90
19359;DHT22;9815;52.334;20.890;2023-11-21T13:47:24;0.00;99.90
19359;DHT22;9815;52.334;20.890;2023-11-21T13:49:56;0.00;99.90
19359;DHT22;9815;52.334;20.890;2023-11-21T13:52:26;-0.20;99.90
19359;DHT22;9815;52.334;20.890;2023-11-21T13:54:57;-0.10;99.90
19359;DHT22;9815;52.334;20.890;2023-11-21T13:57:29;-0.10;99.90
19359;DHT22;9815;52.334;20.890;2023-11-21T13:59:58;0.00;99.90
19359;DHT22;9815;52.334;20.890;2023-11-21T14:02:30;0.10;99.90
19359;DHT22;9815;52.334;20.890;2023-11-21T14:05:05;0.00;99.90
19359;DHT22;9815;52.334;20.890;2023-11-21T14:07:38;-0.10;99.90
19359;DHT22;9815;52.334;20.890;2023-11-21T14:10:07;-0.10;99.90
19359;DHT22;9815;52.334;20.890;2023-11-21T14:12:40;-0.10;99.90
19359;DHT22;9815;52.334;20.890;2023-11-21T14:15:09;-0.10;99.90
19359;DHT22;9815;52.334;20.890;2023-11-21T14:17:44;-0.10;99.90
19359;DHT22;9815;52.334;20.890;2023-11-21T14:20:12;-0.20;99.90
19359;DHT22;9815;52.334;20.890;2023-11-21T14:22:45;-0.20;99.90
19359;DHT22;9815;52.334;20.890;2023-11-21T14:25:14;-0.20;99.90
19359;DHT22;9815;52.334;20.890;2023-11-21T14:27:44;-0.20;99.90
19359;DHT22;9815;52.334;20.890;2023-11-21T14:30:13;-0.20;99.90
19359;DHT22;9815;52.334;20.890;2023-11-21T14:32:42;-0.30;99.90
19359;DHT22;9815;52.334;20.890;2023-11-21T14:35:10;-0.30;99.90
19359;DHT22;9815;52.334;20.890;2023-11-21T14:37:39;-0.30;99.90
19359;DHT22;9815;52.334;20.890;2023-11-21T14:40:10;-0.40;99.90
19359;DHT22;9815;52.334;20.890;2023-11-21T14:42:39;-0.40;99.90
19359;DHT22;9815;52.334;20.890;2023-11-21T14:45:10;-0.40;99.90
19359;DHT22;9815;52.334;20.890;2023-11-21T14:47:39;-0.40;99.90
19359;DHT22;9815;52.334;20.890;2023-11-21T14:50:14;-0.40;99.90
19359;DHT22;9815;52.334;20.890;2023-11-21T14:52:56;-0.40;99.90
19359;DHT22;9815;52.334;20.890;2023-11-21T14:55:28;-0.40;99.90
19359;DHT22;9815;52.334;20.890;2023-11-21T14:57:59;-0.40;99.90
19359;DHT22;9815;52.334;20.890;2023-11-21T15:00:31;-0.40;99.90
19359;DHT22;9815;52.334;20.890;2023-11-21T15:03:13;-0.40;99.90
19359;DHT22;9815;52.334;20.890;2023-11-21T15:06:02;-0.40;99.90
19359;DHT22;9815;52.334;20.890;2023-11-21T15:08:49;-0.40;99.90
19359;DHT22;9815;52.334;20.890;2023-11-21T15:11:27;-0.40;99.90
19359;DHT22;9815;52.334;20.890;2023-11-21T15:13:58;-0.50;99.90
19359;DHT22;9815;52.334;20.890;2023-11-21T15:16:27;-0.40;99.90
19359;DHT22;9815;52.334;20.890;2023-11-21T15:18:56;-0.50;99.90
19359;DHT22;9815;52.334;20.890;2023-11-21T15:21:24;-0.40;99.90
19359;DHT22;9815;52.334;20.890;2023-11-21T15:23:53;-0.50;99.90
19359;DHT22;9815;52.334;20.890;2023-11-21T15:26:21;-0.50;99.90
19359;DHT22;9815;52.334;20.890;2023-11-21T15:28:52;-0.50;99.90
19359;DHT22;9815;52.334;20.890;2023-11-21T15:31:20;-0.50;99.90
19359;DHT22;9815;52.334;20.890;2023-11-21T15:33:52;-0.50;99.90
19359;DHT22;9815;52.334;20.890;2023-11-21T15:36:21;-0.50;99.90
19359;DHT22;9815;52.334;20.890;2023-11-21T15:38:49;-0.50;99.90
19359;DHT22;9815;52.334;20.890;2023-11-21T15:41:17;-0.50;99.90
19359;DHT22;9815;52.334;20.890;2023-11-21T15:43:46;-0.50;99.90
19359;DHT22;9815;52.334;20.890;2023-11-21T15:46:17;-0.50;99.90
19359;DHT22;9815;52.334;20.890;2023-11-21T15:48:46;-0.50;99.90
19359;DHT22;9815;52.334;20.890;2023-11-21T15:51:18;-0.40;99.90
19359;DHT22;9815;52.334;20.890;2023-11-21T15:53:47;-0.40;99.90
19359;DHT22;9815;52.334;20.890;2023-11-21T15:56:15;-0.50;99.90
19359;DHT22;9815;52.334;20.890;2023-11-21T15:58:45;-0.50;99.90
19359;DHT22;9815;52.334;20.890;2023-11-21T16:01:18;-0.50;99.90